createdAt,value
2023-02-24T00:01:23.736Z,71.20
2023-02-24T00:06:36.068Z,71.40
2023-02-24T00:11:43.702Z,71.60
2023-02-24T00:16:49.342Z,72.00
2023-02-24T00:21:54.331Z,72.30
2023-02-24T00:27:00.413Z,72.30
2023-02-24T00:32:13.380Z,72.10
2023-02-24T00:37:17.001Z,71.90
2023-02-24T00:42:20.477Z,71.60
2023-02-24T00:47:25.657Z,71.50
2023-02-24T00:52:29.097Z,71.50
2023-02-24T00:57:33.332Z,71.60
2023-02-24T01:02:38.313Z,71.60
2023-02-24T01:07:42.073Z,71.50
2023-02-24T01:12:53.988Z,71.50
2023-02-24T01:17:58.816Z,71.50
2023-02-24T01:23:03.495Z,72.60
2023-02-24T01:28:06.970Z,71.60
2023-02-24T01:33:14.727Z,71.80
2023-02-24T01:38:23.076Z,71.90
2023-02-24T01:43:26.711Z,71.90
2023-02-24T01:48:31.808Z,71.80
2023-02-24T01:53:35.270Z,72.00
2023-02-24T01:58:38.726Z,72.20
2023-02-24T02:03:45.641Z,72.20
2023-02-24T02:08:49.379Z,72.10
2023-02-24T02:13:54.349Z,72.10
2023-02-24T02:19:10.767Z,72.20
2023-02-24T02:24:32.635Z,72.30
2023-02-24T02:30:18.007Z,72.30
2023-02-24T02:35:25.785Z,72.30
2023-02-24T02:40:38.003Z,72.20
2023-02-24T02:45:47.798Z,72.30
2023-02-24T02:50:55.797Z,72.40
2023-02-24T02:56:03.775Z,72.60
2023-02-24T03:01:08.920Z,73.60
2023-02-24T03:06:19.177Z,72.80
2023-02-24T03:11:24.154Z,72.90
2023-02-24T03:16:28.434Z,73.00
2023-02-24T03:21:38.136Z,73.20
2023-02-24T03:26:49.294Z,73.30
2023-02-24T03:31:59.507Z,73.60
2023-02-24T03:37:04.784Z,73.70
2023-02-24T03:42:13.516Z,73.80
2023-02-24T03:47:20.483Z,73.90
2023-02-24T03:52:34.990Z,74.00
2023-02-24T03:57:56.230Z,74.30
2023-02-24T04:03:07.523Z,74.50
2023-02-24T04:08:12.660Z,74.80
2023-02-24T04:13:22.234Z,74.90
2023-02-24T04:18:28.507Z,74.90
2023-02-24T04:23:38.732Z,75.00
2023-02-24T04:28:44.030Z,74.90
2023-02-24T04:33:50.445Z,74.80
2023-02-24T04:38:56.009Z,74.80
2023-02-24T04:43:59.402Z,74.90
2023-02-24T04:49:02.944Z,75.00
2023-02-24T04:54:08.511Z,75.20
2023-02-24T04:59:13.501Z,75.30
2023-02-24T05:04:17.049Z,75.40
2023-02-24T05:09:22.320Z,75.70
2023-02-24T05:14:26.373Z,75.80
2023-02-24T05:19:47.592Z,76.10
2023-02-24T05:24:52.434Z,76.80
2023-02-24T05:29:56.555Z,76.70
2023-02-24T05:35:00.106Z,77.30
2023-02-24T05:40:06.491Z,78.00
2023-02-24T05:45:11.158Z,78.50
2023-02-24T05:50:14.740Z,79.00
2023-02-24T05:55:20.276Z,78.80
2023-02-24T06:00:25.968Z,78.80
2023-02-24T06:05:29.379Z,79.70
2023-02-24T06:10:35.031Z,80.20
2023-02-24T06:15:38.703Z,81.40
2023-02-24T06:20:42.140Z,81.60
2023-02-24T06:25:47.429Z,82.00
2023-02-24T06:30:50.879Z,82.60
2023-02-24T06:35:54.455Z,82.60
2023-02-24T06:41:00.618Z,83.10
2023-02-24T06:46:06.089Z,83.20
2023-02-24T06:51:13.712Z,82.90
2023-02-24T06:56:19.935Z,82.70
2023-02-24T07:01:26.737Z,82.10
2023-02-24T07:06:30.952Z,81.90
2023-02-24T07:11:37.236Z,82.20
2023-02-24T07:16:45.325Z,81.90
2023-02-24T07:21:52.766Z,81.90
2023-02-24T07:26:59.439Z,82.70
2023-02-24T07:32:05.674Z,83.00
2023-02-24T07:37:10.381Z,83.10
2023-02-24T07:42:15.456Z,83.90
2023-02-24T07:47:18.860Z,84.60
2023-02-24T07:52:22.718Z,84.50
2023-02-24T07:57:28.952Z,84.10
2023-02-24T08:02:32.360Z,84.10
2023-02-24T08:07:36.269Z,84.50
2023-02-24T08:12:43.792Z,84.70
2023-02-24T08:17:47.826Z,84.60
2023-02-24T08:22:55.712Z,85.40
2023-02-24T08:28:09.260Z,84.40
2023-02-24T08:33:17.467Z,83.80
2023-02-24T08:38:26.441Z,83.60
2023-02-24T08:43:33.626Z,82.90
2023-02-24T08:48:42.304Z,83.40
2023-02-24T08:53:47.349Z,82.90
2023-02-24T08:58:57.181Z,83.60
2023-02-24T09:04:01.688Z,83.70
2023-02-24T09:09:19.106Z,83.00
2023-02-24T09:14:42.819Z,83.20
2023-02-24T09:20:06.448Z,82.60
2023-02-24T09:25:25.927Z,82.70
2023-02-24T09:30:51.234Z,81.90
2023-02-24T09:36:03.394Z,81.90
2023-02-24T09:41:29.954Z,82.70
2023-02-24T09:46:40.973Z,82.90
2023-02-24T09:51:45.252Z,82.80
2023-02-24T09:57:08.485Z,82.30
2023-02-24T10:02:29.255Z,82.20
2023-02-24T10:07:38.574Z,81.80
2023-02-24T10:12:42.516Z,81.40
2023-02-24T10:17:55.409Z,81.40
2023-02-24T10:23:04.378Z,81.00
2023-02-24T10:28:23.084Z,80.60
2023-02-24T10:33:37.877Z,80.70
2023-02-24T10:38:45.561Z,80.10
2023-02-24T10:43:59.290Z,80.30
2023-02-24T10:49:09.802Z,80.50
2023-02-24T10:54:34.266Z,80.30
2023-02-24T10:59:58.584Z,80.00
2023-02-24T11:05:38.090Z,80.90
2023-02-24T11:10:53.351Z,80.90
2023-02-24T11:16:14.702Z,80.50
2023-02-24T11:21:21.180Z,80.50
2023-02-24T11:26:28.387Z,79.80
2023-02-24T11:31:51.941Z,79.80
2023-02-24T11:37:06.613Z,78.80
2023-02-24T11:42:14.844Z,78.80
2023-02-24T11:47:23.048Z,78.50
2023-02-24T11:52:34.120Z,78.80
2023-02-24T11:57:43.236Z,78.50
2023-02-24T12:02:52.836Z,78.90
2023-02-24T12:08:03.252Z,79.10
2023-02-24T12:13:29.318Z,79.20
2023-02-24T12:18:35.629Z,78.90
2023-02-24T12:23:43.956Z,78.40
2023-02-24T12:29:18.794Z,78.50
2023-02-24T12:34:36.952Z,78.70
2023-02-24T12:39:48.759Z,78.80
2023-02-24T12:45:02.249Z,79.00
2023-02-24T12:50:18.464Z,78.50
2023-02-24T12:55:28.010Z,78.60
2023-02-24T13:00:41.923Z,78.00
2023-02-24T13:05:51.885Z,78.30
2023-02-24T13:11:09.914Z,77.30
2023-02-24T13:16:29.690Z,75.10
2023-02-24T13:21:34.671Z,75.30
2023-02-24T13:26:40.347Z,73.10
2023-02-24T13:31:46.755Z,71.10
2023-02-24T13:36:51.800Z,71.40
2023-02-24T13:42:06.506Z,71.80
2023-02-24T13:47:45.173Z,72.90
2023-02-24T13:53:23.720Z,72.90
2023-02-24T14:04:14.372Z,72.10
2023-02-24T14:09:22.929Z,72.70
2023-02-24T14:14:28.226Z,72.90
2023-02-24T14:19:33.136Z,71.90
2023-02-24T14:24:38.077Z,71.70
2023-02-24T14:29:44.474Z,71.30
2023-02-24T14:34:49.571Z,69.60
2023-02-24T14:39:54.430Z,70.50
2023-02-24T14:45:00.057Z,70.50
2023-02-24T14:50:07.001Z,70.90
2023-02-24T14:55:17.538Z,70.90
2023-02-24T15:00:24.505Z,70.70
2023-02-24T15:05:29.831Z,70.40
2023-02-24T15:10:33.667Z,70.90
2023-02-24T15:15:39.513Z,70.90
2023-02-24T15:20:44.334Z,71.00
2023-02-24T15:25:48.252Z,71.20
2023-02-24T15:31:02.535Z,71.00
2023-02-24T15:36:17.816Z,70.70
2023-02-24T15:41:21.978Z,70.30
2023-02-24T15:46:29.626Z,70.20
2023-02-24T15:51:40.630Z,70.60
2023-02-24T15:56:45.153Z,70.80
2023-02-24T16:01:49.451Z,70.50
2023-02-24T16:06:56.994Z,70.20
2023-02-24T16:12:03.520Z,69.70
2023-02-24T16:17:11.080Z,70.10
2023-02-24T16:22:16.300Z,70.40
2023-02-24T16:27:22.130Z,70.30
2023-02-24T16:32:28.018Z,70.50
2023-02-24T16:37:33.151Z,70.20
2023-02-24T16:42:37.130Z,70.60
2023-02-24T16:47:41.138Z,70.60
2023-02-24T16:52:45.907Z,70.30
2023-02-24T16:57:49.611Z,70.50
2023-02-24T17:02:54.627Z,70.30
2023-02-24T17:07:59.671Z,70.00
2023-02-24T17:13:03.047Z,68.90
2023-02-24T17:18:07.574Z,69.20
2023-02-24T17:23:13.702Z,69.10
2023-02-24T17:28:17.079Z,70.00
2023-02-24T17:33:20.807Z,72.00
2023-02-24T17:38:26.588Z,71.70
2023-02-24T17:43:30.549Z,72.10
2023-02-24T17:48:34.696Z,73.00
2023-02-24T17:53:39.626Z,75.10
2023-02-24T17:58:44.157Z,76.30
2023-02-24T18:03:47.814Z,76.50
2023-02-24T18:08:52.914Z,76.50
2023-02-24T18:14:00.354Z,76.50
2023-02-24T18:19:04.434Z,77.10
2023-02-24T18:24:10.414Z,75.60
2023-02-24T18:29:13.951Z,75.70
2023-02-24T18:34:17.603Z,75.30
2023-02-24T18:39:24.403Z,75.30
2023-02-24T18:44:27.972Z,75.10
2023-02-24T18:49:32.295Z,75.10
2023-02-24T18:54:37.527Z,75.20
2023-02-24T18:59:41.586Z,75.10
2023-02-24T19:04:45.838Z,75.10
2023-02-24T19:09:50.880Z,75.10
2023-02-24T19:14:54.286Z,75.10
2023-02-24T19:19:58.240Z,73.70
2023-02-24T19:25:03.041Z,72.80
2023-02-24T19:30:07.735Z,72.90
2023-02-24T19:35:11.517Z,72.80
2023-02-24T19:40:16.467Z,71.70
2023-02-24T19:45:20.643Z,71.20
2023-02-24T19:50:24.294Z,71.70
2023-02-24T19:55:29.052Z,72.40
2023-02-24T20:00:32.501Z,72.90
2023-02-24T20:05:37.344Z,72.30
2023-02-24T20:10:42.103Z,72.50
2023-02-24T20:15:45.467Z,72.60
2023-02-24T20:20:48.955Z,72.80
2023-02-24T20:25:55.089Z,72.90
2023-02-24T20:31:00.785Z,72.80
2023-02-24T20:36:09.011Z,72.70
2023-02-24T20:41:14.186Z,72.50
2023-02-24T20:46:19.206Z,72.50
2023-02-24T20:51:23.148Z,72.30
2023-02-24T20:56:29.151Z,72.60
2023-02-24T21:01:36.443Z,72.90
2023-02-24T21:06:40.414Z,73.20
2023-02-24T21:11:45.944Z,73.50
2023-02-24T21:16:49.738Z,73.50
2023-02-24T21:21:53.225Z,73.80
2023-02-24T21:26:58.580Z,73.70
2023-02-24T21:32:03.277Z,73.80
2023-02-24T21:37:07.370Z,73.70
2023-02-24T21:42:12.570Z,73.50
2023-02-24T21:47:16.252Z,73.80
2023-02-24T21:52:19.959Z,73.80
2023-02-24T21:57:24.738Z,74.10
2023-02-24T22:02:28.144Z,74.00
2023-02-24T22:07:31.906Z,74.00
2023-02-24T22:12:36.720Z,74.00
2023-02-24T22:17:41.553Z,73.80
2023-02-24T22:22:44.949Z,74.80
2023-02-24T22:27:49.710Z,74.50
2023-02-24T22:32:53.460Z,75.10
2023-02-24T22:37:57.261Z,75.50
2023-02-24T22:43:02.239Z,75.60
2023-02-24T22:48:05.672Z,75.40
2023-02-24T22:53:10.048Z,75.60
2023-02-24T22:58:15.470Z,75.60
2023-02-24T23:03:21.493Z,74.80
2023-02-24T23:08:25.562Z,74.60
2023-02-24T23:13:30.353Z,74.50
2023-02-24T23:18:35.438Z,73.80
2023-02-24T23:23:39.219Z,74.40
2023-02-24T23:28:44.628Z,74.50
2023-02-24T23:33:48.379Z,75.00
2023-02-24T23:38:52.174Z,76.00
2023-02-24T23:43:57.233Z,76.40
2023-02-24T23:49:00.693Z,76.60
2023-02-24T23:54:04.795Z,76.60
2023-02-24T23:59:09.905Z,77.30
